Time;durP1;ratioP1;P1;durP2;ratioP2;P2;SDS_P1;SDS_P2;PMS_P1;PMS_P2;Temp;Humidity;BMP_temperature;BMP_pressure;BME280_temperature;BME280_humidity;BME280_pressure;Samples;Min_cycle;Max_cycle;Signal;HPM_P1;HPM_P2
2021/03/18 00:03:56;;;;;;;23.57;10.73;;;;;;;-0.82;82.21;101199.84;3527934;82;98706;-79
2021/03/18 00:08:56;;;;;;;21.37;9.87;;;;;;;-0.82;82.27;101192.53;3553262;81;35893;-79
2021/03/18 00:13:57;;;;;;;25.40;9.40;;;;;;;-0.75;82.14;101193.56;3510483;81;98509;-78
2021/03/18 00:18:58;;;;;;;20.80;9.70;;;;;;;-0.67;82.18;101187.56;3520625;81;35049;-78
2021/03/18 00:23:59;;;;;;;18.43;9.83;;;;;;;-0.63;82.11;101188.05;3534125;81;98474;-79
2021/03/18 00:29:01;;;;;;;23.53;9.33;;;;;;;-0.57;82.05;101190.97;3550750;81;35047;-79
2021/03/18 00:34:04;;;;;;;24.80;10.27;;;;;;;-0.52;81.91;101189.56;3507315;82;98611;-78
2021/03/18 00:39:08;;;;;;;19.73;9.27;;;;;;;-0.52;81.60;101191.45;3542511;81;34931;-79
2021/03/18 00:44:09;;;;;;;20.30;9.77;;;;;;;-0.58;81.74;101188.01;3542713;81;98617;-77
2021/03/18 00:49:11;;;;;;;21.17;10.30;;;;;;;-0.66;82.30;101209.44;3552263;81;35048;-77
2021/03/18 00:54:12;;;;;;;24.77;11.85;;;;;;;-0.72;83.19;101206.52;3538957;79;101822;-78
2021/03/18 00:59:13;;;;;;;25.20;10.47;;;;;;;-0.73;83.61;101194.89;3556279;81;35031;-78
2021/03/18 01:04:15;;;;;;;26.67;12.10;;;;;;;-0.68;83.79;101192.15;3518168;81;98537;-78
2021/03/18 01:09:16;;;;;;;23.50;10.83;;;;;;;-0.65;83.98;101183.48;3549768;80;35934;-78
2021/03/18 01:14:17;;;;;;;26.77;10.77;;;;;;;-0.58;84.17;101188.54;3550554;80;98517;-78
2021/03/18 01:19:22;;;;;;;23.50;10.10;;;;;;;-0.52;84.37;101182.81;3560508;81;35533;-79
2021/03/18 01:24:23;;;;;;;22.07;10.10;;;;;;;-0.49;84.37;101175.49;3547213;80;99095;-79
2021/03/18 01:29:25;;;;;;;22.17;9.60;;;;;;;-0.43;84.24;101173.53;3556817;80;35078;-79
2021/03/18 01:34:26;;;;;;;17.97;8.53;;;;;;;-0.37;84.20;101167.79;3542751;80;98451;-79
2021/03/18 01:39:26;;;;;;;17.07;8.97;;;;;;;-0.37;84.14;101165.87;3545488;81;35416;-79
2021/03/18 01:44:27;;;;;;;22.27;10.90;;;;;;;-0.34;83.77;101154.24;3531450;81;98528;-79
2021/03/18 01:49:28;;;;;;;20.20;9.00;;;;;;;-0.33;83.83;101164.75;3554606;81;35484;-78
2021/03/18 01:54:29;;;;;;;19.87;8.25;;;;;;;-0.36;83.68;101151.25;3511361;82;99046;-77
2021/03/18 01:59:30;;;;;;;17.67;8.10;;;;;;;-0.31;83.50;101149.06;3526951;82;35529;-78
2021/03/18 02:04:31;;;;;;;21.05;9.23;;;;;;;-0.28;83.44;101144.98;3509397;80;98762;-78
2021/03/18 02:09:31;;;;;;;17.73;8.10;;;;;;;-0.29;83.43;101151.48;3507807;82;33196;-79
2021/03/18 02:14:33;;;;;;;15.97;7.57;;;;;;;-0.31;83.39;101147.14;3497687;80;98649;-77
2021/03/18 02:20:04;;;;;;;18.17;7.83;;;;;;;-0.38;83.92;101151.31;3512787;82;32783;-77
2021/03/18 02:25:23;;;;;;;18.13;8.13;;;;;;;-0.40;84.26;101149.98;3551013;81;98673;-78
2021/03/18 02:30:58;;;;;;;17.23;8.53;;;;;;;-0.41;84.54;101150.52;3571612;80;32690;-77
2021/03/18 02:36:09;;;;;;;16.60;8.60;;;;;;;-0.37;84.58;101151.00;3564959;81;98896;-78
2021/03/18 02:41:14;;;;;;;17.40;8.97;;;;;;;-0.24;84.70;101146.02;3568990;81;33184;-78
2021/03/18 02:46:15;;;;;;;17.07;8.80;;;;;;;-0.16;84.66;101147.54;3522863;81;98685;-78
2021/03/18 02:51:20;;;;;;;19.03;9.40;;;;;;;-0.16;84.60;101147.54;3570013;81;32675;-77
2021/03/18 02:56:22;;;;;;;20.27;9.23;;;;;;;-0.20;84.72;101158.11;3566148;81;98400;-77
2021/03/18 03:01:24;;;;;;;16.73;7.87;;;;;;;-0.18;84.84;101153.77;3568921;81;32700;-78
2021/03/18 03:06:28;;;;;;;19.37;9.23;;;;;;;-0.17;84.92;101149.97;3547629;81;98802;-77
2021/03/18 03:11:29;;;;;;;18.17;9.37;;;;;;;-0.16;85.01;101157.02;3572137;81;33193;-78
2021/03/18 03:16:31;;;;;;;19.40;9.17;;;;;;;-0.15;84.99;101163.46;3516087;81;98602;-78
2021/03/18 03:21:32;;;;;;;19.40;9.20;;;;;;;-0.14;85.00;101175.09;3532927;82;33224;-79
2021/03/18 03:26:35;;;;;;;18.20;9.30;;;;;;;-0.13;84.83;101165.09;3531539;82;98644;-78
2021/03/18 03:31:36;;;;;;;20.17;10.10;;;;;;;-0.15;84.81;101161.32;3520023;82;32729;-78
2021/03/18 03:36:37;;;;;;;19.27;9.93;;;;;;;-0.17;84.83;101148.61;3591298;79;98473;-78
2021/03/18 03:41:38;;;;;;;18.30;8.83;;;;;;;-0.19;84.62;101148.11;3614097;80;32713;-78
2021/03/18 03:46:39;;;;;;;19.10;8.33;;;;;;;-0.14;84.57;101137.23;3603129;80;98472;-78
2021/03/18 03:52:13;;;;;;;17.83;9.37;;;;;;;-0.17;84.51;101147.83;3615347;80;32671;-77
2021/03/18 03:57:32;;;;;;;16.77;7.93;;;;;;;-0.21;84.70;101144.89;3615540;80;98894;-78
2021/03/18 04:02:34;;;;;;;18.83;8.83;;;;;;;-0.22;84.71;101146.53;3605705;80;33278;-77
2021/03/18 04:07:37;;;;;;;14.13;7.23;;;;;;;-0.31;84.85;101147.14;3580184;80;98168;-78
2021/03/18 04:12:41;;;;;;;16.13;7.93;;;;;;;-0.31;84.81;101142.30;3536577;81;33293;-79
2021/03/18 04:17:48;;;;;;;18.23;8.70;;;;;;;-0.33;84.99;101135.00;3445270;82;98446;-78
2021/03/18 04:22:53;;;;;;;15.65;7.47;;;;;;;-0.35;85.07;101130.44;3579144;80;26024;-77
2021/03/18 04:27:56;;;;;;;14.58;7.80;;;;;;;-0.34;85.15;101136.09;3564107;80;98382;-79
2021/03/18 04:32:58;;;;;;;16.23;9.03;;;;;;;-0.33;85.25;101129.59;3569771;80;32789;-79
2021/03/18 04:38:04;;;;;;;20.33;9.30;;;;;;;-0.30;85.16;101127.67;3564904;80;98637;-79
2021/03/18 04:43:05;;;;;;;21.35;9.83;;;;;;;-0.27;85.33;101140.64;3587880;80;25954;-78
2021/03/18 04:48:08;;;;;;;23.73;11.63;;;;;;;-0.23;85.76;101139.52;3580404;80;98512;-78
2021/03/18 04:53:09;;;;;;;22.60;12.70;;;;;;;-0.23;85.61;101138.16;3576221;80;32595;-79
2021/03/18 04:58:11;;;;;;;24.53;11.90;;;;;;;-0.23;85.98;101150.33;3582269;80;98474;-79
2021/03/18 05:03:13;;;;;;;24.53;13.33;;;;;;;-0.26;86.26;101157.91;3578563;80;32684;-79
2021/03/18 05:08:17;;;;;;;21.77;11.77;;;;;;;-0.19;86.25;101150.81;3566412;80;98444;-79
2021/03/18 05:13:18;;;;;;;22.03;11.30;;;;;;;-0.16;86.53;101155.66;3574487;80;98814;-79
2021/03/18 05:18:20;;;;;;;21.77;10.70;;;;;;;-0.09;86.49;101141.23;3578835;80;32669;-79
2021/03/18 05:23:24;;;;;;;23.70;13.57;;;;;;;-0.01;86.54;101138.69;3571475;80;98765;-79
2021/03/18 05:28:25;;;;;;;22.40;10.60;;;;;;;0.03;86.56;101137.55;3573986;80;33753;-78
2021/03/18 05:33:26;;;;;;;23.53;10.93;;;;;;;0.00;86.77;101130.03;3573260;80;98241;-79
2021/03/18 05:38:26;;;;;;;18.67;9.70;;;;;;;0.02;86.88;101131.89;3584184;80;33244;-79
2021/03/18 05:43:27;;;;;;;23.13;11.70;;;;;;;0.16;86.80;101128.70;3562017;80;98209;-79
2021/03/18 05:48:29;;;;;;;22.63;11.00;;;;;;;0.19;86.69;101137.61;3581547;80;32704;-79
2021/03/18 05:53:30;;;;;;;24.43;12.43;;;;;;;0.22;86.85;101145.16;3584239;79;98707;-79
2021/03/18 05:58:32;;;;;;;20.73;9.70;;;;;;;0.29;86.88;101145.60;3577074;80;32573;-78
2021/03/18 06:03:34;;;;;;;20.40;10.13;;;;;;;0.44;86.77;101154.88;3572106;80;98700;-79
2021/03/18 06:08:37;;;;;;;22.00;10.87;;;;;;;0.50;86.50;101118.50;3587722;80;32682;-78
2021/03/18 06:13:39;;;;;;;20.80;11.53;;;;;;;0.69;86.72;101138.23;3599532;80;98661;-79
2021/03/18 06:18:40;;;;;;;19.83;10.50;;;;;;;0.67;85.86;101119.56;3596346;80;32674;-78
2021/03/18 06:23:41;;;;;;;22.97;11.37;;;;;;;0.73;86.20;101146.03;3573614;79;99245;-77
2021/03/18 06:28:41;;;;;;;26.63;12.73;;;;;;;0.76;86.09;101154.91;3596953;80;33184;-76
2021/03/18 06:33:50;;;;;;;32.10;14.67;;;;;;;0.83;86.32;101160.79;3592963;80;98619;-77
2021/03/18 06:39:10;;;;;;;36.80;16.00;;;;;;;0.84;86.19;101165.92;3602919;80;33205;-77
2021/03/18 06:44:24;;;;;;;35.27;17.10;;;;;;;1.00;86.35;101167.83;3594342;80;98496;-77
2021/03/18 06:49:26;;;;;;;43.57;19.10;;;;;;;1.12;86.16;101161.39;3603429;80;32744;-79
2021/03/18 06:54:27;;;;;;;37.17;17.27;;;;;;;1.16;85.76;101141.51;3597630;80;98616;-78
2021/03/18 06:59:32;;;;;;;38.23;16.50;;;;;;;1.20;85.97;101150.67;3604131;80;32626;-77
2021/03/18 07:04:42;;;;;;;35.53;17.47;;;;;;;1.38;85.97;101153.08;3588453;80;98610;-78
2021/03/18 07:09:45;;;;;;;34.73;16.47;;;;;;;1.47;85.89;101160.22;3581156;81;33092;-78
2021/03/18 07:14:49;;;;;;;29.47;14.67;;;;;;;1.49;85.82;101158.00;3575926;81;98693;-79
2021/03/18 07:19:50;;;;;;;33.53;15.33;;;;;;;1.56;85.61;101158.97;3579915;81;32685;-79
2021/03/18 07:24:54;;;;;;;28.77;13.43;;;;;;;1.77;85.71;101163.73;3575354;80;98599;-79
2021/03/18 07:29:55;;;;;;;28.93;13.50;;;;;;;1.80;85.33;101170.47;3586234;81;32853;-78
2021/03/18 07:34:56;;;;;;;27.87;14.70;;;;;;;1.86;85.34;101168.69;3579082;81;98807;-79
2021/03/18 07:40:00;;;;;;;32.73;15.70;;;;;;;1.92;85.31;101157.98;3586564;81;32680;-77
2021/03/18 07:45:01;;;;;;;31.93;15.33;;;;;;;1.99;84.97;101151.63;3575897;81;98653;-79
2021/03/18 07:50:07;;;;;;;24.67;13.00;;;;;;;1.93;84.72;101142.52;3582920;81;32798;-80
2021/03/18 07:55:12;;;;;;;25.67;13.07;;;;;;;2.06;84.99;101124.05;3578063;80;98639;-79
2021/03/18 08:00:18;;;;;;;27.17;12.93;;;;;;;2.20;84.34;101116.70;3588585;81;32718;-80
2021/03/18 08:05:39;;;;;;;28.73;15.40;;;;;;;2.27;84.06;101111.64;3573909;80;98626;-80
2021/03/18 08:10:42;;;;;;;26.03;13.90;;;;;;;2.30;84.05;101114.55;3580682;81;33004;-80
2021/03/18 08:15:45;;;;;;;25.60;12.53;;;;;;;2.51;84.66;101109.48;3580854;79;98447;-80
2021/03/18 08:20:52;;;;;;;25.93;13.83;;;;;;;2.79;84.24;101117.20;3585949;79;32666;-80
2021/03/18 08:25:56;;;;;;;;;;;;;;;2.86;83.69;101116.78;3574943;81;98537;-80
2021/03/18 08:30:57;;;;;;;29.90;15.47;;;;;;;3.03;84.26;101119.08;3583372;79;25985;-81
2021/03/18 08:36:34;;;;;;;24.75;13.55;;;;;;;3.16;83.30;101119.55;3577621;80;98613;-81
2021/03/18 08:41:46;;;;;;;27.42;14.30;;;;;;;3.03;82.86;101108.74;3580008;81;26402;-79
2021/03/18 08:47:04;;;;;;;25.40;13.83;;;;;;;3.16;83.90;101116.04;3571959;81;98758;-80
2021/03/18 08:52:19;;;;;;;23.70;12.23;;;;;;;3.29;83.49;101116.50;3590993;81;32679;-80
2021/03/18 08:57:25;;;;;;;26.80;12.88;;;;;;;3.36;83.34;101120.39;3571238;79;98441;-80
2021/03/18 09:02:38;;;;;;;24.65;12.95;;;;;;;3.46;82.74;101113.32;3573734;80;26372;-80
2021/03/18 09:07:36;;;;;;;28.95;14.68;;;;;;;3.73;82.72;101106.86;3573619;81;98607;-80
2021/03/18 09:12:53;;;;;;;26.60;14.57;;;;;;;3.91;82.55;101107.97;3586077;81;33232;-80
2021/03/18 09:18:01;;;;;;;27.67;14.87;;;;;;;3.99;81.50;101110.47;3576354;81;98151;-79
2021/03/18 09:23:20;;;;;;;28.40;14.87;;;;;;;4.06;81.83;101104.81;3577489;81;32756;-80
2021/03/18 09:28:21;;;;;;;29.60;15.97;;;;;;;4.16;81.45;101094.16;3580113;81;33290;-80
2021/03/18 09:33:30;;;;;;;28.93;14.57;;;;;;;3.98;80.36;101091.17;3573556;81;101237;-81
2021/03/18 09:38:32;;;;;;;27.60;14.40;;;;;;;3.92;80.49;101095.95;3579890;81;32706;-80
2021/03/18 09:43:33;;;;;;;25.43;13.43;;;;;;;3.89;81.21;101084.89;3573146;81;98603;-80
2021/03/18 09:48:38;;;;;;;23.70;12.63;;;;;;;4.12;81.12;101083.11;3577742;81;32748;-79
2021/03/18 09:53:42;;;;;;;20.83;11.20;;;;;;;4.16;80.12;101090.86;3533469;81;98815;-79
2021/03/18 09:58:43;;;;;;;23.90;12.70;;;;;;;4.24;79.99;101085.19;3583045;80;32707;-79
2021/03/18 10:04:04;;;;;;;24.10;12.43;;;;;;;4.33;80.28;101090.91;3569597;81;98737;-79
2021/03/18 10:09:28;;;;;;;19.50;10.97;;;;;;;4.53;80.58;101087.53;3594602;80;32650;-78
2021/03/18 10:14:45;;;;;;;21.77;12.93;;;;;;;4.71;79.56;101078.25;3596919;80;98269;-79
2021/03/18 10:20:01;;;;;;;;;;;;;;;4.61;79.40;101079.93;3614729;80;26419;-78
2021/03/18 10:25:15;;;;;;;19.43;10.00;;;;;;;4.69;79.29;101080.47;3599174;80;84404;-79
2021/03/18 10:30:21;;;;;;;16.67;8.80;;;;;;;4.71;79.37;101063.25;3607189;80;33223;-78
2021/03/18 10:35:22;;;;;;;20.00;10.80;;;;;;;4.51;78.39;101069.89;3599129;80;98548;-79
2021/03/18 10:40:27;;;;;;;22.37;12.90;;;;;;;4.45;79.22;101063.81;3612630;80;32705;-79
2021/03/18 10:45:34;;;;;;;23.00;12.90;;;;;;;4.56;79.80;101064.28;3596676;80;98641;-79
2021/03/18 10:50:38;;;;;;;25.57;14.27;;;;;;;4.68;79.31;101057.61;3609682;80;32704;-78
2021/03/18 10:55:44;;;;;;;27.87;15.20;;;;;;;4.82;79.26;101048.16;3592298;80;98284;-79
2021/03/18 11:00:47;;;;;;;30.37;15.83;;;;;;;4.95;78.81;101049.07;3603771;80;26674;-79
2021/03/18 11:05:51;;;;;;;25.90;14.63;;;;;;;5.20;78.03;101044.12;3601855;80;99002;-78
2021/03/18 11:10:54;;;;;;;26.70;14.80;;;;;;;5.26;77.95;101035.44;3567938;80;32755;-78
2021/03/18 11:16:02;;;;;;;27.80;15.50;;;;;;;5.50;78.49;101039.73;3543080;80;98521;-79
2021/03/18 11:21:26;;;;;;;22.73;12.47;;;;;;;5.75;78.78;101033.91;3559083;80;44876;-79
2021/03/18 11:26:27;;;;;;;22.00;11.67;;;;;;;6.02;77.64;101031.53;3580444;80;98590;-79
2021/03/18 11:31:29;;;;;;;20.57;11.67;;;;;;;5.88;75.96;101024.70;3588563;80;32711;-79
2021/03/18 11:36:30;;;;;;;23.57;12.13;;;;;;;5.87;76.08;101024.47;3572996;79;98315;-79
2021/03/18 11:41:31;;;;;;;18.30;10.33;;;;;;;5.59;75.34;101017.30;3590792;80;32693;-79
2021/03/18 11:46:32;;;;;;;21.52;10.63;;;;;;;5.45;76.08;101012.63;3588084;80;98698;-79
2021/03/18 11:51:33;;;;;;;20.83;11.50;;;;;;;5.61;75.82;101006.84;3588484;80;33593;-79
2021/03/18 11:56:35;;;;;;;21.57;12.27;;;;;;;5.63;76.17;101002.42;3579277;79;98362;-79
2021/03/18 12:01:36;;;;;;;19.50;10.97;;;;;;;5.50;75.96;101002.89;3584614;80;32858;-79
2021/03/18 12:06:36;;;;;;;18.93;11.27;;;;;;;5.41;75.19;101000.75;3576488;80;98942;-79
2021/03/18 12:11:39;;;;;;;19.57;11.00;;;;;;;5.23;75.43;100995.73;3558008;81;32736;-78
2021/03/18 12:16:40;;;;;;;18.70;10.97;;;;;;;5.16;75.61;100989.95;3543460;81;98105;-78
2021/03/18 12:21:40;;;;;;;21.93;12.00;;;;;;;5.11;75.72;100984.12;3553747;81;32810;-79
2021/03/18 12:26:41;;;;;;;19.40;10.78;;;;;;;5.07;75.44;100985.11;3544931;81;98505;-79
2021/03/18 12:31:42;;;;;;;18.83;10.03;;;;;;;5.10;75.91;100977.08;3558453;81;33127;-79
2021/03/18 12:36:43;;;;;;;16.68;9.44;;;;;;;5.04;75.86;100966.66;3546176;80;98299;-78
2021/03/18 12:41:44;;;;;;;16.60;9.37;;;;;;;5.11;76.15;100969.13;3558882;81;27560;-78
2021/03/18 12:46:45;;;;;;;17.33;9.97;;;;;;;5.20;76.00;100963.08;3547238;81;98251;-78
2021/03/18 12:51:46;;;;;;;18.03;10.07;;;;;;;5.36;75.84;100944.98;3552713;81;26494;-78
2021/03/18 12:56:47;;;;;;;14.50;7.67;;;;;;;5.47;75.36;100940.77;3545576;81;98514;-77
2021/03/18 13:01:48;;;;;;;12.97;6.80;;;;;;;5.40;74.34;100930.92;3554310;81;26795;-78
2021/03/18 13:06:52;;;;;;;12.27;6.60;;;;;;;5.28;75.02;100933.56;3546283;81;98357;-78
2021/03/18 13:11:53;;;;;;;14.60;7.73;;;;;;;5.33;73.46;100920.28;3582453;80;26284;-78
2021/03/18 13:16:53;;;;;;;14.67;7.57;;;;;;;5.32;73.79;100911.31;3586663;80;98234;-79
2021/03/18 13:21:54;;;;;;;14.17;7.23;;;;;;;5.19;72.78;100902.78;3583544;80;26442;-78
2021/03/18 13:26:55;;;;;;;15.50;8.13;;;;;;;5.07;73.01;100901.91;3582278;80;97993;-78
2021/03/18 13:31:56;;;;;;;16.57;7.53;;;;;;;5.17;73.76;100891.41;3590378;80;26550;-78
2021/03/18 13:36:56;;;;;;;15.70;7.62;;;;;;;5.33;73.76;100889.71;3581994;80;98714;-79
2021/03/18 13:41:57;;;;;;;14.17;7.70;;;;;;;5.39;73.59;100883.48;3591010;79;26077;-79
2021/03/18 13:46:58;;;;;;;15.37;8.30;;;;;;;5.33;73.38;100881.52;3577008;80;98018;-80
2021/03/18 13:52:01;;;;;;;17.10;8.60;;;;;;;5.44;73.03;100873.73;3590085;80;26306;-79
2021/03/18 13:57:02;;;;;;;15.25;8.25;;;;;;;5.47;73.26;100871.17;3572902;80;97925;-79
2021/03/18 14:02:02;;;;;;;16.50;9.47;;;;;;;5.52;73.16;100868.80;3588300;80;34457;-78
2021/03/18 14:07:04;;;;;;;22.10;10.60;;;;;;;5.54;72.27;100864.60;3586245;78;98071;-79
2021/03/18 14:12:05;;;;;;;19.80;10.53;;;;;;;5.49;72.66;100855.80;3591515;80;33333;-78
2021/03/18 14:17:06;;;;;;;18.40;10.07;;;;;;;5.44;72.22;100850.53;3581452;80;98503;-79
2021/03/18 14:22:07;;;;;;;17.33;9.83;;;;;;;5.55;72.33;100842.17;3588358;80;33334;-79
2021/03/18 14:27:08;;;;;;;25.53;12.40;;;;;;;5.57;71.74;100842.66;3577206;79;98482;-79
2021/03/18 14:32:09;;;;;;;24.63;13.80;;;;;;;5.61;71.61;100837.55;3580842;80;33215;-79
2021/03/18 14:37:10;;;;;;;18.05;9.38;;;;;;;5.63;71.22;100832.55;3579888;80;98657;-78
2021/03/18 14:42:10;;;;;;;15.65;9.58;;;;;;;5.52;71.33;100828.62;3590206;79;32428;-78
2021/03/18 14:47:12;;;;;;;17.33;9.10;;;;;;;5.36;71.33;100813.98;3507323;80;98306;-79
2021/03/18 14:52:13;;;;;;;18.07;9.63;;;;;;;5.29;71.50;100810.21;3504878;82;32287;-79
2021/03/18 14:57:15;;;;;;;18.20;9.43;;;;;;;5.30;71.42;100800.89;3558224;81;98010;-79
2021/03/18 15:02:16;;;;;;;16.97;9.33;;;;;;;5.26;71.97;100801.31;3564947;81;31720;-78
2021/03/18 15:07:17;;;;;;;17.50;9.10;;;;;;;5.02;71.97;100786.17;3553771;80;98679;-78
2021/03/18 15:12:18;;;;;;;15.20;7.77;;;;;;;4.97;71.99;100789.87;3565253;81;31789;-78
2021/03/18 15:17:19;;;;;;;15.70;7.67;;;;;;;4.85;72.43;100793.88;3557495;81;98573;-78
2021/03/18 15:22:20;;;;;;;16.30;8.23;;;;;;;4.88;72.80;100778.23;3562338;81;30988;-78
2021/03/18 15:27:20;;;;;;;16.30;8.07;;;;;;;4.95;72.74;100777.69;3562995;81;98067;-78
2021/03/18 15:32:21;;;;;;;20.60;10.30;;;;;;;4.88;72.37;100765.16;3575230;81;30863;-78
2021/03/18 15:37:22;;;;;;;14.38;7.17;;;;;;;4.85;72.71;100759.02;3557246;80;98307;-77
2021/03/18 15:42:26;;;;;;;14.80;6.60;;;;;;;4.87;72.59;100756.19;3555562;81;36022;-78
2021/03/18 15:47:27;;;;;;;17.47;7.77;;;;;;;4.91;72.61;100753.02;3557836;81;97932;-80
2021/03/18 15:52:28;;;;;;;17.73;8.77;;;;;;;4.91;72.95;100753.02;3563676;81;35453;-78
2021/03/18 15:57:29;;;;;;;12.97;6.60;;;;;;;4.90;72.42;100747.88;3557886;81;98425;-79
2021/03/18 16:02:29;;;;;;;11.80;6.17;;;;;;;4.81;72.99;100749.30;3521457;82;35078;-78
2021/03/18 16:07:30;;;;;;;13.77;5.03;;;;;;;4.78;72.42;100748.63;3583001;80;98642;-79
2021/03/18 16:12:31;;;;;;;12.20;6.00;;;;;;;4.69;72.55;100738.91;3578657;80;35029;-78
2021/03/18 16:17:32;;;;;;;12.98;5.80;;;;;;;4.78;73.21;100743.72;3568322;81;98327;-78
2021/03/18 16:22:32;;;;;;;12.77;6.03;;;;;;;4.86;72.99;100736.06;3577303;81;33197;-77
2021/03/18 16:27:34;;;;;;;14.00;6.90;;;;;;;4.97;72.41;100734.54;3550102;81;98929;-79
2021/03/18 16:32:35;;;;;;;20.63;11.83;;;;;;;5.09;72.35;100737.33;3580442;81;32594;-80
2021/03/18 16:37:36;;;;;;;22.37;12.97;;;;;;;5.14;72.15;100730.31;3570303;81;98454;-79
2021/03/18 16:42:37;;;;;;;17.33;7.83;;;;;;;5.02;71.95;100731.61;3576665;81;32785;-78
2021/03/18 16:47:38;;;;;;;17.10;7.50;;;;;;;4.91;71.62;100734.50;3548827;81;97929;-79
2021/03/18 16:52:39;;;;;;;12.87;7.10;;;;;;;4.70;71.81;100734.46;3576602;81;32770;-78
2021/03/18 16:57:41;;;;;;;18.00;9.07;;;;;;;4.64;72.42;100735.78;3510811;82;97976;-80
2021/03/18 17:02:42;;;;;;;18.07;8.87;;;;;;;4.54;72.09;100740.83;3575723;81;33270;-79
2021/03/18 17:07:43;;;;;;;11.83;4.73;;;;;;;4.25;72.78;100745.69;3565800;81;98009;-79
2021/03/18 17:12:44;;;;;;;5.50;2.27;;;;;;;3.79;74.36;100763.39;3493739;81;33204;-79
2021/03/18 17:17:46;;;;;;;5.80;3.00;;;;;;;3.33;76.31;100776.88;3519962;82;97769;-79
2021/03/18 17:22:47;;;;;;;6.80;2.77;;;;;;;3.00;77.45;100773.02;3525717;82;32745;-80
2021/03/18 17:27:50;;;;;;;7.80;3.10;;;;;;;2.91;78.36;100776.86;3520865;82;97855;-79
2021/03/18 17:32:53;;;;;;;7.77;3.00;;;;;;;2.88;79.16;100769.32;3525724;82;32815;-81
2021/03/18 17:37:54;;;;;;;7.30;2.97;;;;;;;3.05;79.11;100763.36;3514003;82;98355;-77
2021/03/18 17:42:56;;;;;;;7.60;2.83;;;;;;;3.17;79.10;100757.29;3524646;82;32612;-81
2021/03/18 17:47:58;;;;;;;8.70;3.13;;;;;;;3.35;78.83;100756.97;3512787;82;98386;-79
2021/03/18 17:57:59;;;;;;;42.77;19.20;;;;;;;2.91;79.07;100736.08;3515971;82;98448;-79
2021/03/18 18:03:01;;;;;;;40.87;17.77;;;;;;;2.77;79.46;100732.15;3517747;82;32648;-80
2021/03/18 18:08:03;;;;;;;34.60;15.23;;;;;;;2.73;79.83;100730.39;3495811;82;98349;-80
2021/03/18 18:13:07;;;;;;;40.43;20.73;;;;;;;2.66;79.99;100738.19;3523636;82;33111;-80
2021/03/18 18:18:09;;;;;;;36.93;20.33;;;;;;;2.63;80.10;100738.84;3505499;81;98485;-79
2021/03/18 18:23:11;;;;;;;57.60;20.73;;;;;;;2.67;80.26;100738.45;3576865;81;32657;-80
2021/03/18 18:28:13;;;;;;;52.20;20.50;;;;;;;2.64;80.34;100741.79;3571127;81;98155;-80
2021/03/18 18:33:15;;;;;;;48.07;20.37;;;;;;;2.63;80.13;100738.84;3576897;81;32721;-80
2021/03/18 18:38:19;;;;;;;55.57;22.17;;;;;;;2.59;80.39;100735.14;3554192;81;98017;-80
2021/03/18 18:43:21;;;;;;;46.23;20.43;;;;;;;2.36;80.34;100731.72;3568563;80;99046;-80
2021/03/18 18:48:22;;;;;;;61.57;29.83;;;;;;;2.13;80.55;100736.22;3578302;81;32870;-80
2021/03/18 18:53:23;;;;;;;83.70;33.43;;;;;;;2.08;80.73;100737.70;3567679;81;98350;-80
2021/03/18 18:58:24;;;;;;;64.50;27.80;;;;;;;1.86;80.70;100730.41;3571568;81;32630;-79
2021/03/18 19:03:24;;;;;;;50.03;22.37;;;;;;;2.06;80.83;100739.91;3566388;79;98860;-80
2021/03/18 19:08:25;;;;;;;51.53;23.80;;;;;;;1.90;79.90;100738.72;3571133;81;33168;-80
2021/03/18 19:13:26;;;;;;;47.13;21.10;;;;;;;1.77;80.32;100731.48;3547518;81;98376;-80
2021/03/18 19:18:28;;;;;;;50.00;21.83;;;;;;;1.66;80.80;100738.28;3542943;81;32732;-80
2021/03/18 19:23:29;;;;;;;69.53;31.20;;;;;;;1.47;80.64;100744.45;3516879;81;98592;-80
2021/03/18 19:28:31;;;;;;;62.80;29.07;;;;;;;1.39;81.02;100735.17;3549097;81;32867;-80
2021/03/18 19:33:35;;;;;;;54.53;27.47;;;;;;;1.43;81.06;100731.28;3542469;81;98960;-80
2021/03/18 19:38:36;;;;;;;45.75;23.67;;;;;;;1.33;80.97;100726.11;3540644;81;32718;-79
2021/03/18 19:43:39;;;;;;;46.07;24.73;;;;;;;1.23;80.97;100723.09;3542206;81;98662;-80
2021/03/18 19:48:41;;;;;;;50.67;27.80;;;;;;;1.12;80.93;100719.02;3546116;81;32763;-80
2021/03/18 19:53:41;;;;;;;38.95;21.70;;;;;;;1.08;80.93;100723.45;3539925;81;98357;-80
2021/03/18 19:58:43;;;;;;;36.10;19.13;;;;;;;0.97;80.80;100723.44;3551275;81;32844;-80
2021/03/18 20:03:43;;;;;;;40.20;22.50;;;;;;;0.85;80.76;100718.30;3542490;81;99023;-79
2021/03/18 20:08:44;;;;;;;42.13;23.10;;;;;;;0.87;80.88;100718.78;3546214;81;33219;-80
2021/03/18 20:13:45;;;;;;;44.27;22.42;;;;;;;0.80;80.76;100719.77;3561581;81;98658;-79
2021/03/18 20:18:46;;;;;;;46.50;25.13;;;;;;;0.73;80.99;100715.33;3573113;81;32619;-80
2021/03/18 20:23:47;;;;;;;49.67;25.87;;;;;;;0.73;80.89;100718.82;3564030;81;98597;-79
2021/03/18 20:28:49;;;;;;;45.43;22.83;;;;;;;0.68;81.00;100716.25;3578386;81;32630;-80
2021/03/18 20:33:50;;;;;;;45.20;25.07;;;;;;;0.57;81.08;100721.64;3555839;81;98584;-79
2021/03/18 20:38:52;;;;;;;54.60;26.97;;;;;;;0.42;80.86;100721.14;3566034;81;31363;-80
2021/03/18 20:43:53;;;;;;;52.15;27.60;;;;;;;0.47;81.23;100719.14;3572934;81;98827;-79
2021/03/18 20:48:53;;;;;;;48.80;22.70;;;;;;;0.36;81.08;100728.58;3581487;81;33013;-78
2021/03/18 20:53:56;;;;;;;46.00;22.87;;;;;;;0.19;81.04;100726.23;3572370;81;98715;-79
2021/03/18 20:58:57;;;;;;;44.13;23.13;;;;;;;0.14;81.39;100711.44;3584194;81;27713;-79
2021/03/18 21:03:59;;;;;;;45.47;23.13;;;;;;;0.18;81.07;100717.30;3565384;81;98404;-79
2021/03/18 21:09:00;;;;;;;51.73;26.03;;;;;;;0.10;81.32;100724.78;3573103;81;27741;-79
2021/03/18 21:14:02;;;;;;;53.20;28.63;;;;;;;0.10;81.34;100721.26;3558137;81;98723;-79
2021/03/18 21:19:03;;;;;;;75.67;37.70;;;;;;;0.06;81.59;100727.83;3513225;82;27474;-78
2021/03/18 21:24:06;;;;;;;84.03;37.17;;;;;;;0.01;81.54;100737.39;3504361;82;99122;-79
2021/03/18 21:29:07;;;;;;;71.40;35.40;;;;;;;-0.02;81.90;100734.48;3519693;82;27647;-80
2021/03/18 21:34:08;;;;;;;62.80;30.77;;;;;;;-0.02;81.89;100734.48;3512821;80;98918;-79
2021/03/18 21:39:09;;;;;;;68.83;32.43;;;;;;;-0.02;81.83;100726.38;3519673;82;26487;-79
2021/03/18 21:44:10;;;;;;;67.60;31.30;;;;;;;-0.20;81.83;100734.02;3505381;82;98896;-79
2021/03/18 21:49:10;;;;;;;63.37;30.03;;;;;;;-0.27;82.26;100733.05;3470442;82;26104;-79
2021/03/18 21:54:11;;;;;;;59.97;28.70;;;;;;;-0.27;82.62;100730.91;3557694;81;99026;-79
2021/03/18 21:59:15;;;;;;;58.93;26.97;;;;;;;-0.23;82.60;100729.77;3563205;81;26085;-78
2021/03/18 22:04:18;;;;;;;58.87;28.57;;;;;;;-0.23;82.66;100727.84;3546457;80;99112;-79
2021/03/18 22:09:18;;;;;;;51.27;24.10;;;;;;;-0.21;83.06;100733.20;3546121;81;26467;-79
2021/03/18 22:14:21;;;;;;;47.23;23.30;;;;;;;-0.22;83.02;100730.80;3550671;81;98900;-79
2021/03/18 22:19:22;;;;;;;45.77;25.17;;;;;;;-0.13;83.04;100732.29;3517398;82;27448;-79
2021/03/18 22:24:23;;;;;;;51.87;24.23;;;;;;;-0.22;82.87;100726.20;3464367;82;98835;-79
2021/03/18 22:29:24;;;;;;;48.03;24.90;;;;;;;-0.25;82.80;100731.41;3544483;81;25904;-79
2021/03/18 22:34:25;;;;;;;48.23;22.87;;;;;;;-0.25;83.09;100732.76;3483025;83;98777;-79
2021/03/18 22:39:26;;;;;;;49.77;25.20;;;;;;;-0.21;83.34;100731.07;3459718;83;25978;-79
2021/03/18 22:44:27;;;;;;;50.28;25.02;;;;;;;-0.10;83.71;100729.78;3508573;82;99029;-79
2021/03/18 22:49:28;;;;;;;54.10;22.93;;;;;;;-0.04;84.30;100731.29;3461364;83;25987;-79
2021/03/18 22:54:29;;;;;;;41.25;20.05;;;;;;;-0.02;84.17;100732.34;3535530;80;98837;-78
2021/03/18 22:59:29;;;;;;;37.90;18.37;;;;;;;-0.02;84.35;100727.19;3511948;82;25992;-79
2021/03/18 23:04:31;;;;;;;34.93;17.53;;;;;;;0.04;84.53;100726.52;3459483;83;99162;-78
2021/03/18 23:09:31;;;;;;;31.83;16.63;;;;;;;0.04;84.57;100719.75;3549679;81;33817;-78
2021/03/18 23:14:32;;;;;;;29.00;16.10;;;;;;;0.05;84.72;100723.52;3508330;80;98388;-78
2021/03/18 23:19:34;;;;;;;35.90;16.83;;;;;;;0.05;84.81;100715.41;3569353;81;32947;-78
2021/03/18 23:24:35;;;;;;;33.00;16.50;;;;;;;0.12;85.00;100716.36;3538305;81;98340;-79